Time;durP1;ratioP1;P1;durP2;ratioP2;P2;SDS_P1;SDS_P2;PMS_P1;PMS_P2;Temp;Humidity;BMP_temperature;BMP_pressure;BME280_temperature;BME280_humidity;BME280_pressure;Samples;Min_cycle;Max_cycle;Signal;HPM_P1;HPM_P2
2023/09/09 04:31:18;;;;;;;0.00;0.00;;;21.90;80.40;;;;;;5524465;23;20137;-77
2023/09/09 04:33:43;;;;;;;0.00;0.00;;;21.80;80.50;;;;;;4950039;28;20051;-77
2023/09/09 04:36:09;;;;;;;0.00;0.00;;;21.90;80.40;;;;;;4961903;28;20034;-77
2023/09/09 04:38:34;;;;;;;0.00;0.00;;;21.90;80.20;;;;;;4957516;29;20019;-77
2023/09/09 04:41:00;;;;;;;0.00;0.00;;;21.90;80.20;;;;;;4963536;28;20043;-77
2023/09/09 04:43:26;;;;;;;0.00;0.00;;;21.80;80.30;;;;;;4957887;28;20034;-77
2023/09/09 04:45:52;;;;;;;0.00;0.00;;;21.80;80.00;;;;;;4956970;29;20054;-77
2023/09/09 04:48:17;;;;;;;0.00;0.00;;;21.80;80.10;;;;;;4957410;28;20509;-77
2023/09/09 04:50:43;;;;;;;0.00;0.00;;;21.80;79.90;;;;;;4977028;28;20065;-77
2023/09/09 04:53:08;;;;;;;0.00;0.00;;;21.80;79.90;;;;;;4974925;28;20038;-77
2023/09/09 04:55:34;;;;;;;0.00;0.00;;;21.80;79.80;;;;;;4957363;28;20038;-77
2023/09/09 04:58:00;;;;;;;0.00;0.00;;;21.80;80.00;;;;;;4956906;28;20110;-78
2023/09/09 05:00:26;;;;;;;0.00;0.00;;;21.80;79.90;;;;;;4954433;28;20106;-78
2023/09/09 05:02:51;;;;;;;0.00;0.00;;;21.80;79.80;;;;;;4954049;29;20028;-77
2023/09/09 05:05:17;;;;;;;0.00;0.00;;;21.80;79.70;;;;;;4956597;28;20110;-77
2023/09/09 05:07:43;;;;;;;0.00;0.00;;;21.80;79.70;;;;;;4956924;28;20016;-77
2023/09/09 05:10:08;;;;;;;0.00;0.00;;;21.80;79.50;;;;;;4956911;29;20035;-77
2023/09/09 05:12:36;;;;;;;0.00;0.00;;;21.80;79.40;;;;;;4956938;28;20019;-77
2023/09/09 05:15:06;;;;;;;0.00;0.00;;;21.80;79.30;;;;;;4956127;29;20019;-77
2023/09/09 05:17:32;;;;;;;0.00;0.00;;;21.70;79.30;;;;;;4956920;28;20038;-77
2023/09/09 05:19:57;;;;;;;0.00;0.00;;;21.70;79.30;;;;;;4956919;29;20032;-77
2023/09/09 05:22:23;;;;;;;0.00;0.00;;;21.70;79.10;;;;;;4956060;29;20518;-77
2023/09/09 05:24:49;;;;;;;0.00;0.00;;;21.70;79.10;;;;;;4957161;29;20110;-77
2023/09/09 05:27:14;;;;;;;0.00;0.00;;;21.70;79.10;;;;;;4956531;29;20843;-77
2023/09/09 05:29:40;;;;;;;0.00;0.00;;;21.70;78.90;;;;;;4957268;29;20031;-77
2023/09/09 05:32:06;;;;;;;0.00;0.00;;;21.70;78.90;;;;;;4956758;29;20496;-77
2023/09/09 05:34:31;;;;;;;0.00;0.00;;;21.60;78.80;;;;;;4956542;29;20054;-77
2023/09/09 05:36:57;;;;;;;0.00;0.00;;;21.70;78.70;;;;;;4956831;29;20035;-77
2023/09/09 05:39:22;;;;;;;0.17;0.00;;;21.70;78.80;;;;;;4953737;29;20024;-77
2023/09/09 05:41:48;;;;;;;0.00;0.00;;;21.60;79.00;;;;;;4971573;28;20035;-77
2023/09/09 05:44:14;;;;;;;0.00;0.00;;;21.60;79.10;;;;;;4939810;29;20032;-77
2023/09/09 05:46:39;;;;;;;0.00;0.00;;;21.60;79.20;;;;;;4937630;29;20051;-77
2023/09/09 05:49:05;;;;;;;0.10;0.00;;;21.60;79.30;;;;;;4937677;29;20032;-77
2023/09/09 05:51:31;;;;;;;0.00;0.00;;;21.50;79.30;;;;;;4940898;29;20102;-77
2023/09/09 05:53:56;;;;;;;0.15;0.00;;;21.60;79.30;;;;;;4956716;29;20126;-77
2023/09/09 05:56:22;;;;;;;0.00;0.00;;;21.70;79.20;;;;;;4956816;29;20031;-78
2023/09/09 05:58:48;;;;;;;0.00;0.00;;;21.70;79.10;;;;;;4956337;29;20041;-77
2023/09/09 06:01:13;;;;;;;0.00;0.00;;;21.70;79.10;;;;;;4955134;29;20038;-77
2023/09/09 06:03:39;;;;;;;0.00;0.00;;;21.80;79.00;;;;;;4956588;29;20038;-77
2023/09/09 06:06:05;;;;;;;0.00;0.00;;;21.70;78.90;;;;;;4956286;29;20027;-78
2023/09/09 06:08:31;;;;;;;0.00;0.00;;;21.80;78.80;;;;;;4956944;28;20521;-77
2023/09/09 06:10:57;;;;;;;0.00;0.00;;;21.80;78.80;;;;;;4956538;29;20031;-77
2023/09/09 06:13:23;;;;;;;0.00;0.00;;;21.80;78.80;;;;;;4956150;29;20106;-78
2023/09/09 06:15:48;;;;;;;0.00;0.00;;;21.70;79.00;;;;;;4956509;29;20100;-80
2023/09/09 06:18:14;;;;;;;0.00;0.00;;;21.70;79.30;;;;;;4956242;28;20505;-78
2023/09/09 06:20:47;;;;;;;0.10;0.00;;;21.70;79.50;;;;;;4948925;29;20027;-79
2023/09/09 06:23:12;;;;;;;0.00;0.00;;;21.60;79.90;;;;;;4946712;29;20058;-79
2023/09/09 06:25:38;;;;;;;0.00;0.00;;;21.60;80.00;;;;;;4959877;28;20031;-74
2023/09/09 06:28:04;;;;;;;0.00;0.00;;;21.70;79.90;;;;;;4960498;28;20449;-74
2023/09/09 06:30:29;;;;;;;0.00;0.00;;;21.70;79.90;;;;;;4957497;28;20043;-74
2023/09/09 06:32:55;;;;;;;0.00;0.00;;;21.70;79.90;;;;;;4959079;28;20046;-74
2023/09/09 06:35:22;;;;;;;0.00;0.00;;;21.80;79.90;;;;;;4959952;29;20031;-75
2023/09/09 06:37:47;;;;;;;0.00;0.00;;;21.80;79.60;;;;;;4959308;29;20019;-75
2023/09/09 06:40:13;;;;;;;0.00;0.00;;;21.90;79.40;;;;;;4961755;28;20077;-78
2023/09/09 06:42:39;;;;;;;0.20;0.00;;;22.00;79.20;;;;;;4979147;28;20046;-78
2023/09/09 06:45:05;;;;;;;0.00;0.00;;;22.00;79.20;;;;;;4978947;28;20021;-77
2023/09/09 06:47:30;;;;;;;0.00;0.00;;;22.00;79.40;;;;;;4961142;28;20041;-77
2023/09/09 06:49:56;;;;;;;0.00;0.00;;;22.00;79.60;;;;;;4959647;29;20031;-72
2023/09/09 06:52:22;;;;;;;0.00;0.00;;;22.00;79.80;;;;;;4959546;29;20065;-76
2023/09/09 06:54:47;;;;;;;0.00;0.00;;;22.00;79.90;;;;;;4959094;29;20107;-75
2023/09/09 06:57:13;;;;;;;0.00;0.00;;;22.00;80.20;;;;;;4958939;29;20143;-76
2023/09/09 06:59:39;;;;;;;0.00;0.00;;;22.00;80.40;;;;;;4959037;29;20565;-75
2023/09/09 07:02:06;;;;;;;0.10;0.00;;;22.10;80.50;;;;;;4953347;28;20032;-75
2023/09/09 07:04:32;;;;;;;0.13;0.00;;;22.10;80.80;;;;;;4951779;29;20023;-80
2023/09/09 07:06:58;;;;;;;0.00;0.00;;;22.10;80.80;;;;;;4952477;28;20020;-77
2023/09/09 07:09:24;;;;;;;0.00;0.00;;;22.20;80.80;;;;;;4952117;29;20038;-75
2023/09/09 07:11:50;;;;;;;0.00;0.00;;;22.30;80.70;;;;;;4948880;29;20047;-76
2023/09/09 07:14:16;;;;;;;0.00;0.00;;;22.30;80.70;;;;;;4954921;29;20082;-75
2023/09/09 07:16:42;;;;;;;0.00;0.00;;;22.30;80.60;;;;;;4953664;29;20518;-76
2023/09/09 07:19:07;;;;;;;0.05;0.05;;;22.40;80.40;;;;;;4948445;29;20027;-77
2023/09/09 07:21:33;;;;;;;0.00;0.00;;;22.50;80.20;;;;;;4950428;28;20070;-78
2023/09/09 07:23:59;;;;;;;0.00;0.00;;;22.60;80.00;;;;;;4948146;29;20028;-79
2023/09/09 07:26:24;;;;;;;0.10;0.10;;;22.80;79.80;;;;;;4942749;29;20066;-76
2023/09/09 07:28:50;;;;;;;0.10;0.10;;;22.80;79.70;;;;;;4940939;29;20479;-76
2023/09/09 07:31:16;;;;;;;0.30;0.30;;;23.10;79.50;;;;;;4923938;29;20055;-76
2023/09/09 07:33:41;;;;;;;0.30;0.30;;;24.70;76.60;;;;;;4953427;29;20023;-77
2023/09/09 07:36:07;;;;;;;0.22;0.22;;;26.80;71.40;;;;;;4955658;29;20389;-75
2023/09/09 07:38:32;;;;;;;0.30;0.30;;;28.30;65.70;;;;;;4949313;29;20027;-75
2023/09/09 07:40:58;;;;;;;0.20;0.20;;;28.40;63.00;;;;;;4953216;28;20028;-75
2023/09/09 07:43:24;;;;;;;0.20;0.20;;;28.10;62.40;;;;;;4954888;29;20019;-75
2023/09/09 07:45:51;;;;;;;0.10;0.10;;;27.70;63.40;;;;;;4936514;29;20089;-75
2023/09/09 07:48:18;;;;;;;0.10;0.10;;;27.30;63.90;;;;;;4937462;29;20031;-75
2023/09/09 07:50:51;;;;;;;0.00;0.00;;;26.80;65.40;;;;;;4955525;29;20028;-75
2023/09/09 07:53:17;;;;;;;0.10;0.10;;;26.50;66.30;;;;;;4954776;29;20039;-75
2023/09/09 07:55:42;;;;;;;0.00;0.00;;;26.10;67.30;;;;;;4955326;29;20029;-74
2023/09/09 07:58:08;;;;;;;0.00;0.00;;;25.80;68.80;;;;;;4950931;29;20028;-77
2023/09/09 08:00:36;;;;;;;0.00;0.00;;;25.60;69.30;;;;;;4935723;29;20114;-75
2023/09/09 08:03:02;;;;;;;0.00;0.00;;;25.60;69.40;;;;;;4950074;29;20039;-75
2023/09/09 08:05:28;;;;;;;0.00;0.00;;;25.60;70.00;;;;;;4947173;29;20024;-75
2023/09/09 08:07:54;;;;;;;0.10;0.10;;;25.60;69.70;;;;;;4947315;29;20035;-75
2023/09/09 08:10:20;;;;;;;0.10;0.10;;;25.80;68.90;;;;;;4929505;29;20063;-76
2023/09/09 08:12:46;;;;;;;0.00;0.00;;;26.10;67.40;;;;;;4930953;29;20028;-72
2023/09/09 08:15:12;;;;;;;0.15;0.00;;;26.50;67.10;;;;;;4949422;29;20041;-73
2023/09/09 08:17:38;;;;;;;0.10;0.03;;;27.00;66.40;;;;;;4948742;29;20031;-74
2023/09/09 08:20:07;;;;;;;0.00;0.00;;;27.30;64.70;;;;;;4950566;29;20031;-76
2023/09/09 08:22:34;;;;;;;0.00;0.00;;;27.70;62.80;;;;;;4931446;29;20024;-78
2023/09/09 08:25:00;;;;;;;0.00;0.00;;;27.70;62.30;;;;;;4949106;29;20019;-77
2023/09/09 08:27:25;;;;;;;0.00;0.00;;;27.50;63.20;;;;;;4948958;29;20138;-78
2023/09/09 08:29:51;;;;;;;0.00;0.00;;;27.20;63.20;;;;;;4938464;28;20067;-83
2023/09/09 08:32:17;;;;;;;0.00;0.00;;;26.90;64.30;;;;;;4938357;29;20457;-79
2023/09/09 08:34:42;;;;;;;0.00;0.00;;;26.80;64.90;;;;;;4955374;28;20023;-77
2023/09/09 08:37:08;;;;;;;0.00;0.00;;;26.70;65.80;;;;;;4956657;28;20059;-78
2023/09/09 08:39:34;;;;;;;0.00;0.00;;;26.60;65.80;;;;;;4934680;28;20023;-82
2023/09/09 08:42:10;;;;;;;0.00;0.00;;;26.60;67.00;;;;;;4950590;28;20042;-80
2023/09/09 08:44:59;;;;;;;0.00;0.00;;;26.60;66.80;;;;;;4941337;29;20446;-78
2023/09/09 08:47:25;;;;;;;0.00;0.00;;;26.60;67.60;;;;;;4926749;29;20035;-78
2023/09/09 08:49:52;;;;;;;0.00;0.00;;;26.60;66.50;;;;;;4947895;28;20059;-76
2023/09/09 08:52:24;;;;;;;0.10;0.10;;;26.60;65.50;;;;;;4947349;29;20527;-77
2023/09/09 08:54:50;;;;;;;0.00;0.00;;;26.60;65.10;;;;;;4946240;29;20031;-78
2023/09/09 08:57:17;;;;;;;0.00;0.00;;;26.60;65.60;;;;;;4945586;29;20118;-77
2023/09/09 08:59:46;;;;;;;0.00;0.00;;;26.70;65.10;;;;;;4944635;29;20086;-80
2023/09/09 09:02:11;;;;;;;0.00;0.00;;;26.80;64.80;;;;;;4926582;29;20028;-78
2023/09/09 09:04:38;;;;;;;0.00;0.00;;;26.80;65.80;;;;;;4956671;29;20024;-78
2023/09/09 09:07:04;;;;;;;0.00;0.00;;;27.00;64.70;;;;;;4954542;28;20034;-78
2023/09/09 09:09:30;;;;;;;0.00;0.00;;;27.10;63.70;;;;;;4948854;29;20027;-78
2023/09/09 09:11:59;;;;;;;0.00;0.00;;;27.20;61.70;;;;;;4932963;29;20038;-78
2023/09/09 09:14:25;;;;;;;0.10;0.10;;;27.30;61.30;;;;;;4950578;29;20030;-78
2023/09/09 09:16:51;;;;;;;0.15;0.00;;;27.50;61.50;;;;;;4931143;29;20039;-77
2023/09/09 09:19:27;;;;;;;0.10;0.10;;;27.60;62.80;;;;;;4948574;29;20057;-78
2023/09/09 09:21:53;;;;;;;0.00;0.00;;;27.70;61.20;;;;;;4930762;29;20263;-78
2023/09/09 09:24:25;;;;;;;0.20;0.10;;;27.70;60.00;;;;;;4950917;28;20026;-78
2023/09/09 09:26:51;;;;;;;0.00;0.00;;;27.80;61.50;;;;;;4949267;29;20035;-78
2023/09/09 09:29:16;;;;;;;0.10;0.03;;;27.90;61.20;;;;;;4930911;29;20130;-78
2023/09/09 09:31:52;;;;;;;0.00;0.00;;;28.00;60.20;;;;;;4948191;28;20506;-78
2023/09/09 09:34:19;;;;;;;0.00;0.00;;;28.20;61.30;;;;;;4928610;29;20125;-78
2023/09/09 09:36:46;;;;;;;0.00;0.00;;;28.20;60.60;;;;;;4945844;28;20023;-78
2023/09/09 09:39:12;;;;;;;0.00;0.00;;;28.20;58.80;;;;;;4946741;29;20414;-78
2023/09/09 09:41:43;;;;;;;0.15;0.00;;;28.10;58.40;;;;;;4949898;28;20046;-78
2023/09/09 09:44:19;;;;;;;0.10;0.10;;;28.10;58.80;;;;;;4944499;28;20028;-79
2023/09/09 09:46:58;;;;;;;0.00;0.00;;;28.10;59.30;;;;;;4929737;29;20038;-78
2023/09/09 09:49:35;;;;;;;0.22;0.00;;;28.10;59.60;;;;;;4929430;29;20028;-80
2023/09/09 09:52:02;;;;;;;0.00;0.00;;;28.10;59.30;;;;;;4946025;28;20032;-78
2023/09/09 09:54:28;;;;;;;0.00;0.00;;;28.10;58.80;;;;;;4950618;29;20490;-78
2023/09/09 09:57:03;;;;;;;0.00;0.00;;;28.20;58.60;;;;;;4936881;29;20062;-79
2023/09/09 09:59:33;;;;;;;0.00;0.00;;;28.20;59.00;;;;;;4933340;29;20075;-79
2023/09/09 10:02:01;;;;;;;0.10;0.10;;;28.20;59.30;;;;;;4947778;29;20035;-80
2023/09/09 10:04:28;;;;;;;0.00;0.00;;;28.30;59.50;;;;;;4950156;28;20028;-80
2023/09/09 10:07:00;;;;;;;0.00;0.00;;;28.30;58.90;;;;;;4951671;29;20035;-80
2023/09/09 10:09:32;;;;;;;0.10;0.10;;;28.40;58.60;;;;;;4944618;29;20034;-81
2023/09/09 10:12:35;;;;;;;0.08;0.08;;;28.50;57.20;;;;;;4944784;29;20039;-82
2023/09/09 10:15:02;;;;;;;0.00;0.00;;;28.60;56.50;;;;;;4949571;29;20498;-79
2023/09/09 10:17:30;;;;;;;0.00;0.00;;;28.70;56.50;;;;;;4942106;28;20027;-79
2023/09/09 10:19:57;;;;;;;0.00;0.00;;;28.80;57.30;;;;;;4933356;29;20023;-79
2023/09/09 10:22:25;;;;;;;0.10;0.10;;;29.00;55.70;;;;;;4944292;29;20040;-77
2023/09/09 10:24:52;;;;;;;0.00;0.00;;;29.30;56.30;;;;;;4939535;29;20031;-80
2023/09/09 10:27:19;;;;;;;0.05;0.05;;;29.30;54.70;;;;;;4945599;29;20103;-80
2023/09/09 10:29:47;;;;;;;0.00;0.00;;;29.40;53.80;;;;;;4955292;29;20028;-80
2023/09/09 10:32:16;;;;;;;0.10;0.10;;;29.40;54.20;;;;;;4944487;29;20074;-79
2023/09/09 10:34:43;;;;;;;0.00;0.00;;;29.40;53.60;;;;;;4923137;29;20391;-82
2023/09/09 10:37:10;;;;;;;0.00;0.00;;;29.40;55.20;;;;;;4933476;29;20518;-77
2023/09/09 10:39:37;;;;;;;0.00;0.00;;;29.40;53.50;;;;;;4946936;28;20077;-79
2023/09/09 10:42:04;;;;;;;0.00;0.00;;;29.40;53.60;;;;;;4958201;28;20034;-79
2023/09/09 10:44:30;;;;;;;0.00;0.00;;;29.40;53.70;;;;;;4959153;29;20034;-79
2023/09/09 10:46:57;;;;;;;0.00;0.00;;;29.40;53.40;;;;;;4959038;28;20027;-84
2023/09/09 10:49:29;;;;;;;0.00;0.00;;;29.40;52.70;;;;;;4959415;29;20027;-80
2023/09/09 10:51:55;;;;;;;0.00;0.00;;;29.50;52.90;;;;;;4942588;29;20041;-81
2023/09/09 10:54:26;;;;;;;0.03;0.03;;;29.60;53.70;;;;;;4950099;29;20494;-81
2023/09/09 10:57:02;;;;;;;0.00;0.00;;;29.60;52.20;;;;;;4959863;28;20038;-83
2023/09/09 10:59:29;;;;;;;0.00;0.00;;;29.60;52.70;;;;;;4959525;28;20031;-81
2023/09/09 11:02:28;;;;;;;0.00;0.00;;;29.70;52.80;;;;;;4959276;29;20023;-82
2023/09/09 11:05:21;;;;;;;0.00;0.00;;;29.70;52.00;;;;;;4916940;29;20043;-83
2023/09/09 11:07:46;;;;;;;;;;;29.80;51.30;;;;;;4959502;29;20039;-82
2023/09/09 11:10:16;;;;;;;0.00;0.00;;;29.70;51.20;;;;;;4959701;29;19917;-81
2023/09/09 11:12:56;;;;;;;0.00;0.00;;;29.80;51.70;;;;;;4959644;28;20620;-81
2023/09/09 11:15:25;;;;;;;0.03;0.03;;;29.90;52.00;;;;;;4959200;28;20106;-81
2023/09/09 11:17:51;;;;;;;0.00;0.00;;;30.00;51.50;;;;;;4943263;29;20024;-81
2023/09/09 11:20:20;;;;;;;0.00;0.00;;;30.10;50.20;;;;;;4950821;29;20043;-83
2023/09/09 11:22:46;;;;;;;0.00;0.00;;;30.20;50.60;;;;;;4940297;29;20039;-85
2023/09/09 11:25:15;;;;;;;0.00;0.00;;;30.20;49.70;;;;;;4949816;29;20031;-80
2023/09/09 11:27:41;;;;;;;0.00;0.00;;;30.30;49.00;;;;;;4938588;29;20038;-79
2023/09/09 11:30:07;;;;;;;0.00;0.00;;;30.30;49.10;;;;;;4957214;28;20854;-82
2023/09/09 11:32:33;;;;;;;0.00;0.00;;;30.30;47.20;;;;;;4947809;28;20053;-79
2023/09/09 11:34:58;;;;;;;0.00;0.00;;;30.30;48.10;;;;;;4957715;28;20039;-85
2023/09/09 11:37:25;;;;;;;0.00;0.00;;;30.40;47.00;;;;;;4967322;28;20030;-78
2023/09/09 11:39:54;;;;;;;0.00;0.00;;;30.50;48.00;;;;;;4947434;28;20038;-80
2023/09/09 11:42:23;;;;;;;0.20;0.05;;;30.60;46.80;;;;;;4968228;28;20058;-86
2023/09/09 11:44:49;;;;;;;0.00;0.00;;;30.70;45.10;;;;;;4948923;28;20105;-79
2023/09/09 11:47:16;;;;;;;0.00;0.00;;;30.80;44.50;;;;;;4945270;28;20114;-80
2023/09/09 11:49:44;;;;;;;0.00;0.00;;;30.80;42.90;;;;;;4961120;28;20445;-79
2023/09/09 11:52:10;;;;;;;0.00;0.00;;;30.80;42.70;;;;;;4965991;28;20019;-80
2023/09/09 11:54:36;;;;;;;0.00;0.00;;;30.80;43.00;;;;;;4964774;28;20557;-80
2023/09/09 11:57:07;;;;;;;0.00;0.00;;;30.90;43.10;;;;;;4966942;28;20023;-80
2023/09/09 11:59:49;;;;;;;0.00;0.00;;;30.90;44.00;;;;;;4963011;28;20030;-80
2023/09/09 12:02:20;;;;;;;0.00;0.00;;;30.90;44.70;;;;;;4945621;28;20026;-80
2023/09/09 12:04:59;;;;;;;0.00;0.00;;;31.00;45.30;;;;;;4963754;28;20034;-80
2023/09/09 12:07:33;;;;;;;0.00;0.00;;;31.10;43.40;;;;;;4964901;28;20031;-79
2023/09/09 12:10:00;;;;;;;0.00;0.00;;;31.20;41.10;;;;;;4946159;28;20126;-80
2023/09/09 12:12:27;;;;;;;0.00;0.00;;;31.30;41.80;;;;;;4967310;28;20096;-80
2023/09/09 12:14:54;;;;;;;0.00;0.00;;;31.30;42.20;;;;;;4969273;28;20106;-80
2023/09/09 12:17:20;;;;;;;0.00;0.00;;;31.30;40.40;;;;;;4969889;28;20018;-80
2023/09/09 12:19:58;;;;;;;0.00;0.00;;;31.40;39.90;;;;;;4954327;28;20474;-80
2023/09/09 12:22:32;;;;;;;0.00;0.00;;;31.50;41.30;;;;;;4961746;28;20034;-80
2023/09/09 12:24:59;;;;;;;0.00;0.00;;;31.40;40.00;;;;;;4949941;28;20082;-80
2023/09/09 12:27:45;;;;;;;0.00;0.00;;;31.50;40.50;;;;;;4954416;29;20026;-81
2023/09/09 12:30:33;;;;;;;0.00;0.00;;;31.50;38.70;;;;;;4935626;29;20027;-87
2023/09/09 12:33:10;;;;;;;0.00;0.00;;;31.50;40.80;;;;;;4954824;29;20054;-80
2023/09/09 12:35:37;;;;;;;0.00;0.00;;;31.60;40.40;;;;;;4958124;29;20483;-82
2023/09/09 12:38:04;;;;;;;0.00;0.00;;;31.70;40.20;;;;;;4959975;29;20375;-85
2023/09/09 12:40:45;;;;;;;0.00;0.00;;;31.70;40.70;;;;;;4953065;28;20036;-82
2023/09/09 12:43:11;;;;;;;0.00;0.00;;;31.80;40.40;;;;;;4933919;29;20554;-80
2023/09/09 12:45:51;;;;;;;0.00;0.00;;;31.80;39.30;;;;;;4951585;29;20042;-80
2023/09/09 12:48:18;;;;;;;0.00;0.00;;;31.80;38.10;;;;;;4930606;29;21811;-78
2023/09/09 12:50:44;;;;;;;0.00;0.00;;;31.80;38.70;;;;;;4946858;29;20138;-80
2023/09/09 12:53:10;;;;;;;0.00;0.00;;;31.80;39.90;;;;;;4949225;29;20035;-81
2023/09/09 12:55:36;;;;;;;0.00;0.00;;;31.90;38.10;;;;;;4949811;28;20037;-86
2023/09/09 12:58:02;;;;;;;0.00;0.00;;;32.00;40.20;;;;;;4956580;29;20023;-83
2023/09/09 13:00:28;;;;;;;0.00;0.00;;;32.10;40.00;;;;;;4950951;28;20596;-78
2023/09/09 13:02:54;;;;;;;0.05;0.05;;;32.10;38.60;;;;;;4948450;28;20027;-78
2023/09/09 13:05:19;;;;;;;0.00;0.00;;;32.00;39.70;;;;;;4953498;28;20028;-81
2023/09/09 13:07:46;;;;;;;0.05;0.05;;;32.00;38.00;;;;;;4925043;29;20072;-79
2023/09/09 13:10:12;;;;;;;0.00;0.00;;;32.10;37.40;;;;;;4945185;28;20035;-79
2023/09/09 13:12:37;;;;;;;0.00;0.00;;;32.00;37.10;;;;;;4950478;28;20433;-82
2023/09/09 13:15:05;;;;;;;0.00;0.00;;;31.90;36.70;;;;;;4947068;28;20497;-77
2023/09/09 13:17:30;;;;;;;0.00;0.00;;;32.10;38.50;;;;;;4932025;28;20042;-77
2023/09/09 13:19:56;;;;;;;0.00;0.00;;;32.20;37.60;;;;;;4951949;28;20039;-78
2023/09/09 13:22:22;;;;;;;0.00;0.00;;;32.30;37.30;;;;;;4953270;28;20075;-79
2023/09/09 13:24:47;;;;;;;0.00;0.00;;;32.40;37.50;;;;;;4954348;28;20062;-77
2023/09/09 13:27:13;;;;;;;0.00;0.00;;;32.40;36.20;;;;;;4952197;28;20039;-79
2023/09/09 13:29:39;;;;;;;0.00;0.00;;;32.40;36.10;;;;;;4951817;28;20042;-77
2023/09/09 13:32:05;;;;;;;0.00;0.00;;;32.50;36.50;;;;;;4949096;28;20114;-78
2023/09/09 13:34:30;;;;;;;0.00;0.00;;;32.50;37.10;;;;;;4952503;28;20383;-79
2023/09/09 13:36:56;;;;;;;0.00;0.00;;;32.50;36.40;;;;;;4933014;29;20057;-79
2023/09/09 13:39:22;;;;;;;0.00;0.00;;;32.50;35.90;;;;;;4932662;29;20027;-80
2023/09/09 13:41:47;;;;;;;0.00;0.00;;;32.50;35.00;;;;;;4942610;29;20108;-81
2023/09/09 13:44:13;;;;;;;0.15;0.00;;;32.50;34.30;;;;;;4928866;29;20020;-77
2023/09/09 13:46:39;;;;;;;0.00;0.00;;;32.60;35.60;;;;;;4949423;28;20458;-79
2023/09/09 13:49:06;;;;;;;0.00;0.00;;;32.60;34.90;;;;;;4938481;28;20517;-79
2023/09/09 13:51:32;;;;;;;0.00;0.00;;;32.60;35.10;;;;;;4926829;29;20027;-77
2023/09/09 13:53:58;;;;;;;0.00;0.00;;;32.60;34.40;;;;;;4946542;28;20050;-77
2023/09/09 13:56:23;;;;;;;0.00;0.00;;;32.60;32.40;;;;;;4942740;28;20026;-78
2023/09/09 13:58:49;;;;;;;0.00;0.00;;;32.70;33.90;;;;;;4938654;28;20027;-77
2023/09/09 14:01:15;;;;;;;0.13;0.05;;;32.80;33.80;;;;;;4939790;29;20122;-77
2023/09/09 14:03:40;;;;;;;0.00;0.00;;;32.80;33.90;;;;;;4950194;28;20107;-78
2023/09/09 14:06:08;;;;;;;0.00;0.00;;;32.70;33.50;;;;;;4957662;28;20039;-78
2023/09/09 14:08:34;;;;;;;0.00;0.00;;;32.80;33.20;;;;;;4939396;29;20494;-80
2023/09/09 14:11:00;;;;;;;0.00;0.00;;;32.80;34.60;;;;;;4960351;28;20069;-81
2023/09/09 14:13:26;;;;;;;0.00;0.00;;;32.80;32.60;;;;;;4929479;29;20035;-78
2023/09/09 14:15:52;;;;;;;0.08;0.08;;;32.90;34.10;;;;;;4948657;28;20510;-78
2023/09/09 14:18:18;;;;;;;0.00;0.00;;;32.90;33.90;;;;;;4953201;28;20495;-81
2023/09/09 14:20:44;;;;;;;0.00;0.00;;;32.90;32.60;;;;;;4936494;29;20024;-79
2023/09/09 14:23:10;;;;;;;0.10;0.00;;;32.90;32.40;;;;;;4939682;28;20031;-80
2023/09/09 14:25:37;;;;;;;0.00;0.00;;;32.90;32.70;;;;;;4940160;28;20019;-77
2023/09/09 14:28:03;;;;;;;0.15;0.00;;;32.90;33.20;;;;;;4938679;29;20552;-79
2023/09/09 14:30:29;;;;;;;0.00;0.00;;;32.90;33.20;;;;;;4949278;28;20730;-82
2023/09/09 14:32:55;;;;;;;0.10;0.10;;;32.90;32.10;;;;;;4954031;28;20201;-85
2023/09/09 14:35:20;;;;;;;0.00;0.00;;;32.90;31.40;;;;;;4949980;28;20027;-83
2023/09/09 14:37:46;;;;;;;0.00;0.00;;;32.90;32.10;;;;;;4951028;28;20042;-79
2023/09/09 14:40:12;;;;;;;0.00;0.00;;;32.90;31.50;;;;;;4938115;29;20019;-82
2023/09/09 14:42:38;;;;;;;0.00;0.00;;;32.90;30.20;;;;;;4958607;29;20030;-84
2023/09/09 14:45:04;;;;;;;0.00;0.00;;;33.00;32.40;;;;;;4958932;28;20023;-84
2023/09/09 14:47:30;;;;;;;0.00;0.00;;;33.00;32.40;;;;;;4954430;29;20035;-85
2023/09/09 14:49:56;;;;;;;0.00;0.00;;;33.00;32.50;;;;;;4930705;29;20490;-83
2023/09/09 14:52:22;;;;;;;0.00;0.00;;;33.00;32.20;;;;;;4948617;28;20030;-81
2023/09/09 14:54:47;;;;;;;0.00;0.00;;;32.90;32.70;;;;;;4954135;28;20035;-81
2023/09/09 14:57:13;;;;;;;0.00;0.00;;;32.90;32.70;;;;;;4951629;28;20486;-81
2023/09/09 14:59:39;;;;;;;0.00;0.00;;;33.00;33.60;;;;;;4951333;29;20034;-81
2023/09/09 15:02:04;;;;;;;0.00;0.00;;;32.90;33.00;;;;;;4938691;29;20027;-80
2023/09/09 15:04:30;;;;;;;0.00;0.00;;;32.80;32.20;;;;;;4937608;29;20614;-81
2023/09/09 15:06:55;;;;;;;0.00;0.00;;;32.80;31.00;;;;;;4951263;29;20922;-81
2023/09/09 15:09:21;;;;;;;0.00;0.00;;;32.90;31.60;;;;;;4938132;29;20031;-80
2023/09/09 15:11:46;;;;;;;0.00;0.00;;;32.90;31.00;;;;;;4948181;29;20036;-81
2023/09/09 15:14:12;;;;;;;0.00;0.00;;;32.90;32.00;;;;;;4935287;29;20039;-80
2023/09/09 15:16:48;;;;;;;0.10;0.00;;;32.90;31.30;;;;;;4955472;29;20106;-80
2023/09/09 15:19:14;;;;;;;0.00;0.00;;;32.90;29.70;;;;;;4952307;29;20023;-81
2023/09/09 15:21:40;;;;;;;0.00;0.00;;;32.90;29.90;;;;;;4950862;28;20019;-82
2023/09/09 15:24:06;;;;;;;0.10;0.10;;;33.00;30.80;;;;;;4953912;29;20053;-79
2023/09/09 15:26:32;;;;;;;0.00;0.00;;;33.00;30.10;;;;;;4933305;29;20750;-79
2023/09/09 15:28:57;;;;;;;0.00;0.00;;;33.00;31.50;;;;;;4950019;29;20113;-81
2023/09/09 15:31:24;;;;;;;0.00;0.00;;;33.00;30.50;;;;;;4932260;29;20051;-80
2023/09/09 15:33:50;;;;;;;0.00;0.00;;;32.90;30.50;;;;;;4952579;28;20087;-82
2023/09/09 15:36:15;;;;;;;0.00;0.00;;;32.90;31.80;;;;;;4930617;29;20457;-82
2023/09/09 15:38:41;;;;;;;0.00;0.00;;;32.90;29.80;;;;;;4934387;29;20027;-86
2023/09/09 15:41:07;;;;;;;0.00;0.00;;;32.80;30.90;;;;;;4933184;29;20056;-78
2023/09/09 15:43:35;;;;;;;0.00;0.00;;;32.80;30.70;;;;;;4949638;29;20031;-86
2023/09/09 15:46:01;;;;;;;0.00;0.00;;;32.90;30.60;;;;;;4934637;29;20039;-84
2023/09/09 15:48:26;;;;;;;0.00;0.00;;;32.90;31.00;;;;;;4951161;29;20207;-78
2023/09/09 15:50:52;;;;;;;0.00;0.00;;;32.90;31.70;;;;;;4936418;29;20027;-82
2023/09/09 15:53:18;;;;;;;0.00;0.00;;;32.90;31.00;;;;;;4940671;29;20119;-81
2023/09/09 15:55:44;;;;;;;0.00;0.00;;;32.80;30.70;;;;;;4943428;29;20031;-83
2023/09/09 15:58:10;;;;;;;0.00;0.00;;;32.80;30.40;;;;;;4946048;28;20031;-81
2023/09/09 16:00:36;;;;;;;0.00;0.00;;;32.90;30.90;;;;;;4930803;29;20096;-79
2023/09/09 16:03:03;;;;;;;0.00;0.00;;;32.80;32.40;;;;;;4932513;29;20032;-85
2023/09/09 16:05:30;;;;;;;0.00;0.00;;;32.80;30.90;;;;;;4930058;29;20841;-79
2023/09/09 16:07:56;;;;;;;0.00;0.00;;;32.80;30.50;;;;;;4929786;29;20110;-80
2023/09/09 16:10:21;;;;;;;0.00;0.00;;;32.90;30.30;;;;;;4950236;28;20039;-79
2023/09/09 16:12:47;;;;;;;0.00;0.00;;;32.90;31.50;;;;;;4948449;29;20033;-78
2023/09/09 16:15:13;;;;;;;0.00;0.00;;;32.90;30.80;;;;;;4932138;29;20398;-78
2023/09/09 16:17:40;;;;;;;0.00;0.00;;;32.80;31.20;;;;;;4946302;29;20390;-80
2023/09/09 16:20:06;;;;;;;0.00;0.00;;;32.80;30.70;;;;;;4931847;29;20035;-86
2023/09/09 16:22:32;;;;;;;0.00;0.00;;;32.80;31.80;;;;;;4931650;29;20074;-82
2023/09/09 16:24:58;;;;;;;0.00;0.00;;;32.70;32.60;;;;;;4949594;29;20020;-79
2023/09/09 16:27:25;;;;;;;0.00;0.00;;;32.60;32.80;;;;;;4946756;29;20078;-79
2023/09/09 16:29:51;;;;;;;0.00;0.00;;;32.60;31.90;;;;;;4947873;29;20030;-79
2023/09/09 16:32:17;;;;;;;0.00;0.00;;;32.60;32.60;;;;;;4951259;29;20051;-82
2023/09/09 16:34:42;;;;;;;0.00;0.00;;;32.50;34.20;;;;;;4938845;29;20042;-79
2023/09/09 16:37:08;;;;;;;0.00;0.00;;;32.40;34.70;;;;;;4938352;29;20035;-79
2023/09/09 16:39:34;;;;;;;0.00;0.00;;;32.40;33.50;;;;;;4956985;29;20015;-79
2023/09/09 16:41:59;;;;;;;0.00;0.00;;;32.30;35.00;;;;;;4938483;28;20024;-79
2023/09/09 16:44:25;;;;;;;0.00;0.00;;;32.20;34.70;;;;;;4955916;29;20074;-79
2023/09/09 16:46:51;;;;;;;0.00;0.00;;;32.20;35.20;;;;;;4956613;28;20041;-79
2023/09/09 16:49:16;;;;;;;0.00;0.00;;;32.10;35.20;;;;;;4956804;29;20110;-79
2023/09/09 16:51:43;;;;;;;0.00;0.00;;;32.00;35.50;;;;;;4955686;29;20035;-79
2023/09/09 16:54:09;;;;;;;0.00;0.00;;;31.90;35.50;;;;;;4956312;29;20042;-79
2023/09/09 16:56:35;;;;;;;0.00;0.00;;;31.90;36.60;;;;;;4956999;29;20402;-79
2023/09/09 16:59:00;;;;;;;0.00;0.00;;;31.80;37.60;;;;;;4955666;28;20039;-79
2023/09/09 17:01:26;;;;;;;0.00;0.00;;;31.70;37.20;;;;;;4956388;29;20039;-79
2023/09/09 17:03:51;;;;;;;0.00;0.00;;;31.70;36.60;;;;;;4956837;29;20042;-79
2023/09/09 17:06:17;;;;;;;0.00;0.00;;;31.80;34.00;;;;;;4956724;29;20043;-80
2023/09/09 17:08:43;;;;;;;0.00;0.00;;;31.70;36.10;;;;;;4957064;29;20482;-79
2023/09/09 17:11:08;;;;;;;0.38;0.00;;;31.60;35.20;;;;;;4954238;28;20122;-79
2023/09/09 17:13:34;;;;;;;0.00;0.00;;;31.60;37.40;;;;;;4956117;28;20023;-79
2023/09/09 17:16:03;;;;;;;0.00;0.00;;;31.50;36.30;;;;;;4939429;29;20038;-79
2023/09/09 17:18:29;;;;;;;0.00;0.00;;;31.40;37.70;;;;;;4955880;29;20020;-79